L'Epiphanie, Canada
Current Conditions -  °F | °C
As of 5:00 PM on Saturday 25 Oct 2014 (Local Time) from CYHU Reporting Station
Light Rain Light Rain  
Wind Chill: 50°   Ceiling: 6500
Heat Index: 50°   Visibility: 9mi
Dew Point: 46°   Wind: 8mph
Humidity: 87%   Direction: 180°S
Pressure: 29.5"   Gusts: NA
Location:  45.85°N, 73.48°W
Report Text: CYHU 252100Z AUTO 18007KT 9SM -RA FEW032 SCT050 OVC065 10/08 A2950 RMK PCPN 2.0MM PAST HR SLP989
Loading
Personal Weather Stations






























Interactive Weather Map
Tropical Storm Tracking
New forecast layout! Learn more

10-Day Weather Forecast

Advertisements
Track Severe Weather on mobile